Accueil
METAR-TAF:

METAR-TAF

Aéroports :

Aéroport international de Bâle-Mulhouse-Fribourg

Bâle-Mulhouse, France

latitude: 47-36N, longitude: 007-31E, altitude: 270 m

Observation

Le bulletin a été fait il y a 32 minutes, à 03:00 UTC
Vent 1 kt de nord-ouest
Température 15°C
Humidité 100%
Pression 1022 hPa
Visibilité 10 km ou plus
pas de nuages en-dessous de 1500 mètres et pas de cumulonimbus.

METAR: LFSB 200300Z 31001KT CAVOK 15/15 Q1022 NOSIG

Heure: 05:32 (03:32 UTC)

Prévision

Le bulletin a été fait il y a 4 heures et 32 minutes, à 23:00 UTC
Prévision valable du 20 à 00 UTC au 20 à 24 UTC
Vent 5 kt de nord/nord-ouest
Visibilité 10 km ou plus
pas de nuages en-dessous de 1500 mètres et pas de cumulonimbus.
Probabilité 30% :
Temporairement
du 20 à 02 UTC au 20 à 05 UTC
Visibilité: 4000 m
brume

TAF: LFSB 192300Z 2000/2024 33005KT CAVOK PROB30 TEMPO 2002/2005 4000 BR

Observations et prévisions météorologiques de plus de 4000 aéroports (messages METAR et TAF).

Les stations disponibles sont représentées par des disques jaunes et rouges sur la carte.

Passer la souris dessus pour voir le nom de la station.

Cliquer dessus pour voir les observations et prévisions météorologiques.

Pour changer de carte: cliquez sur les boutons verts avec une croix noire pour zoomer, sur le bouton vert avec un tiret pour effectuer un zoom arrière, ou sur les flèches vertes pour les cartes adjacentes.


METAR-TAF: